sensor_id;sensor_type;location;lat;lon;timestamp;P1;durP1;ratioP1;P2;durP2;ratioP2
57443;SDS011;43289;52.962;6.196;2022-12-18T00:01:35;72.00;;;35.40;;
57443;SDS011;43289;52.962;6.196;2022-12-18T00:04:03;86.53;;;36.92;;
57443;SDS011;43289;52.962;6.196;2022-12-18T00:06:29;78.15;;;34.50;;
57443;SDS011;43289;52.962;6.196;2022-12-18T00:08:56;71.18;;;33.45;;
57443;SDS011;43289;52.962;6.196;2022-12-18T00:11:24;71.05;;;35.55;;
57443;SDS011;43289;52.962;6.196;2022-12-18T00:13:50;74.88;;;32.97;;
57443;SDS011;43289;52.962;6.196;2022-12-18T00:16:18;77.78;;;33.83;;
57443;SDS011;43289;52.962;6.196;2022-12-18T00:18:45;77.75;;;33.83;;
57443;SDS011;43289;52.962;6.196;2022-12-18T00:21:12;77.03;;;33.13;;
57443;SDS011;43289;52.962;6.196;2022-12-18T00:23:39;71.13;;;33.50;;
57443;SDS011;43289;52.962;6.196;2022-12-18T00:26:07;73.45;;;32.88;;
57443;SDS011;43289;52.962;6.196;2022-12-18T00:28:34;73.38;;;33.13;;
57443;SDS011;43289;52.962;6.196;2022-12-18T00:31:01;76.03;;;33.67;;
57443;SDS011;43289;52.962;6.196;2022-12-18T00:33:27;77.80;;;34.45;;
57443;SDS011;43289;52.962;6.196;2022-12-18T00:35:53;72.00;;;33.28;;
57443;SDS011;43289;52.962;6.196;2022-12-18T00:38:19;79.28;;;34.35;;
57443;SDS011;43289;52.962;6.196;2022-12-18T00:40:45;66.97;;;32.58;;
57443;SDS011;43289;52.962;6.196;2022-12-18T00:43:11;71.97;;;32.60;;
57443;SDS011;43289;52.962;6.196;2022-12-18T00:45:37;70.70;;;32.92;;
57443;SDS011;43289;52.962;6.196;2022-12-18T00:48:03;71.95;;;31.75;;
57443;SDS011;43289;52.962;6.196;2022-12-18T00:50:29;73.45;;;33.75;;
57443;SDS011;43289;52.962;6.196;2022-12-18T00:52:55;71.15;;;32.17;;
57443;SDS011;43289;52.962;6.196;2022-12-18T00:55:21;74.72;;;31.95;;
57443;SDS011;43289;52.962;6.196;2022-12-18T00:57:47;64.97;;;30.60;;
57443;SDS011;43289;52.962;6.196;2022-12-18T01:00:14;68.80;;;28.67;;
57443;SDS011;43289;52.962;6.196;2022-12-18T01:02:40;65.57;;;30.52;;
57443;SDS011;43289;52.962;6.196;2022-12-18T01:05:07;64.05;;;31.00;;
57443;SDS011;43289;52.962;6.196;2022-12-18T01:07:33;69.15;;;32.17;;
57443;SDS011;43289;52.962;6.196;2022-12-18T01:09:59;77.57;;;31.90;;
57443;SDS011;43289;52.962;6.196;2022-12-18T01:12:25;69.70;;;31.50;;
57443;SDS011;43289;52.962;6.196;2022-12-18T01:14:51;64.28;;;29.15;;
57443;SDS011;43289;52.962;6.196;2022-12-18T01:17:17;68.32;;;31.67;;
57443;SDS011;43289;52.962;6.196;2022-12-18T01:19:43;64.72;;;29.70;;
57443;SDS011;43289;52.962;6.196;2022-12-18T01:22:09;60.60;;;27.23;;
57443;SDS011;43289;52.962;6.196;2022-12-18T01:24:35;61.10;;;27.88;;
57443;SDS011;43289;52.962;6.196;2022-12-18T01:27:03;61.33;;;26.65;;
57443;SDS011;43289;52.962;6.196;2022-12-18T01:29:29;68.10;;;29.50;;
57443;SDS011;43289;52.962;6.196;2022-12-18T01:31:55;65.55;;;31.55;;
57443;SDS011;43289;52.962;6.196;2022-12-18T01:34:22;63.72;;;28.75;;
57443;SDS011;43289;52.962;6.196;2022-12-18T01:36:48;61.92;;;29.38;;
57443;SDS011;43289;52.962;6.196;2022-12-18T01:39:14;63.95;;;30.13;;
57443;SDS011;43289;52.962;6.196;2022-12-18T01:41:48;55.80;;;29.33;;
57443;SDS011;43289;52.962;6.196;2022-12-18T01:47:15;57.35;;;27.00;;
57443;SDS011;43289;52.962;6.196;2022-12-18T01:49:41;64.07;;;29.55;;
57443;SDS011;43289;52.962;6.196;2022-12-18T01:52:07;59.67;;;29.98;;
57443;SDS011;43289;52.962;6.196;2022-12-18T01:54:33;69.32;;;31.30;;
57443;SDS011;43289;52.962;6.196;2022-12-18T01:56:59;68.63;;;31.90;;
57443;SDS011;43289;52.962;6.196;2022-12-18T01:59:26;66.68;;;29.63;;
57443;SDS011;43289;52.962;6.196;2022-12-18T02:01:52;61.33;;;30.30;;
57443;SDS011;43289;52.962;6.196;2022-12-18T02:04:22;70.88;;;31.02;;
57443;SDS011;43289;52.962;6.196;2022-12-18T02:06:50;72.20;;;31.60;;
57443;SDS011;43289;52.962;6.196;2022-12-18T02:09:21;63.58;;;30.73;;
57443;SDS011;43289;52.962;6.196;2022-12-18T02:18:07;64.18;;;31.55;;
57443;SDS011;43289;52.962;6.196;2022-12-18T02:20:35;65.65;;;31.17;;
57443;SDS011;43289;52.962;6.196;2022-12-18T02:23:09;71.97;;;30.67;;
57443;SDS011;43289;52.962;6.196;2022-12-18T02:28:13;69.45;;;30.85;;
57443;SDS011;43289;52.962;6.196;2022-12-18T02:30:41;71.57;;;33.30;;
57443;SDS011;43289;52.962;6.196;2022-12-18T02:33:08;67.35;;;31.60;;
57443;SDS011;43289;52.962;6.196;2022-12-18T02:35:34;65.68;;;32.20;;
57443;SDS011;43289;52.962;6.196;2022-12-18T02:38:02;67.97;;;31.25;;
57443;SDS011;43289;52.962;6.196;2022-12-18T02:40:29;72.40;;;32.20;;
57443;SDS011;43289;52.962;6.196;2022-12-18T02:42:55;74.82;;;32.25;;
57443;SDS011;43289;52.962;6.196;2022-12-18T02:45:27;61.97;;;33.13;;
57443;SDS011;43289;52.962;6.196;2022-12-18T02:47:53;72.03;;;33.88;;
57443;SDS011;43289;52.962;6.196;2022-12-18T02:50:26;63.22;;;33.60;;
57443;SDS011;43289;52.962;6.196;2022-12-18T02:55:45;69.28;;;33.22;;
57443;SDS011;43289;52.962;6.196;2022-12-18T02:58:15;70.93;;;31.88;;
57443;SDS011;43289;52.962;6.196;2022-12-18T03:00:53;64.38;;;31.45;;
57443;SDS011;43289;52.962;6.196;2022-12-18T03:03:28;65.28;;;32.17;;
57443;SDS011;43289;52.962;6.196;2022-12-18T03:08:25;62.72;;;32.80;;
57443;SDS011;43289;52.962;6.196;2022-12-18T03:10:54;63.55;;;31.23;;
57443;SDS011;43289;52.962;6.196;2022-12-18T03:13:23;65.65;;;31.17;;
57443;SDS011;43289;52.962;6.196;2022-12-18T03:15:56;59.60;;;31.17;;
57443;SDS011;43289;52.962;6.196;2022-12-18T03:18:24;66.93;;;30.77;;
57443;SDS011;43289;52.962;6.196;2022-12-18T03:20:51;64.68;;;29.17;;
57443;SDS011;43289;52.962;6.196;2022-12-18T03:23:20;53.55;;;27.23;;
57443;SDS011;43289;52.962;6.196;2022-12-18T03:25:46;61.42;;;28.10;;
57443;SDS011;43289;52.962;6.196;2022-12-18T03:28:14;63.13;;;27.85;;
57443;SDS011;43289;52.962;6.196;2022-12-18T03:30:41;56.60;;;28.20;;
57443;SDS011;43289;52.962;6.196;2022-12-18T03:33:10;57.58;;;30.75;;
57443;SDS011;43289;52.962;6.196;2022-12-18T03:35:39;59.97;;;27.48;;
57443;SDS011;43289;52.962;6.196;2022-12-18T03:38:06;53.40;;;29.73;;
57443;SDS011;43289;52.962;6.196;2022-12-18T03:40:35;60.22;;;28.02;;
57443;SDS011;43289;52.962;6.196;2022-12-18T03:43:16;57.97;;;25.95;;
57443;SDS011;43289;52.962;6.196;2022-12-18T03:45:48;57.17;;;27.70;;
57443;SDS011;43289;52.962;6.196;2022-12-18T03:48:26;49.53;;;24.80;;
57443;SDS011;43289;52.962;6.196;2022-12-18T03:50:56;51.90;;;25.92;;
57443;SDS011;43289;52.962;6.196;2022-12-18T03:56:01;52.58;;;26.45;;
57443;SDS011;43289;52.962;6.196;2022-12-18T03:58:28;56.45;;;24.95;;
57443;SDS011;43289;52.962;6.196;2022-12-18T04:00:55;53.53;;;25.48;;
57443;SDS011;43289;52.962;6.196;2022-12-18T04:03:22;53.70;;;26.13;;
57443;SDS011;43289;52.962;6.196;2022-12-18T04:05:49;52.15;;;26.27;;
57443;SDS011;43289;52.962;6.196;2022-12-18T04:08:17;47.13;;;23.02;;
57443;SDS011;43289;52.962;6.196;2022-12-18T04:10:43;48.70;;;25.00;;
57443;SDS011;43289;52.962;6.196;2022-12-18T04:13:09;44.85;;;22.98;;
57443;SDS011;43289;52.962;6.196;2022-12-18T04:15:35;44.10;;;22.63;;
57443;SDS011;43289;52.962;6.196;2022-12-18T04:18:02;44.92;;;20.38;;
57443;SDS011;43289;52.962;6.196;2022-12-18T04:20:28;41.13;;;23.10;;
57443;SDS011;43289;52.962;6.196;2022-12-18T04:22:55;49.65;;;23.50;;
57443;SDS011;43289;52.962;6.196;2022-12-18T04:25:21;45.53;;;21.73;;
57443;SDS011;43289;52.962;6.196;2022-12-18T04:27:47;44.55;;;24.08;;
57443;SDS011;43289;52.962;6.196;2022-12-18T04:30:15;45.00;;;22.58;;
57443;SDS011;43289;52.962;6.196;2022-12-18T04:32:41;42.22;;;22.90;;
57443;SDS011;43289;52.962;6.196;2022-12-18T04:35:07;44.53;;;23.55;;
57443;SDS011;43289;52.962;6.196;2022-12-18T04:37:35;46.58;;;23.45;;
57443;SDS011;43289;52.962;6.196;2022-12-18T04:40:01;42.10;;;21.48;;
57443;SDS011;43289;52.962;6.196;2022-12-18T04:42:27;48.78;;;23.02;;
57443;SDS011;43289;52.962;6.196;2022-12-18T04:44:53;49.30;;;23.90;;
57443;SDS011;43289;52.962;6.196;2022-12-18T04:47:19;43.75;;;20.60;;
57443;SDS011;43289;52.962;6.196;2022-12-18T04:49:45;48.83;;;24.42;;
57443;SDS011;43289;52.962;6.196;2022-12-18T04:52:11;47.10;;;22.10;;
57443;SDS011;43289;52.962;6.196;2022-12-18T04:54:37;44.10;;;23.58;;
57443;SDS011;43289;52.962;6.196;2022-12-18T04:57:03;49.00;;;24.08;;
57443;SDS011;43289;52.962;6.196;2022-12-18T04:59:29;39.58;;;20.45;;
57443;SDS011;43289;52.962;6.196;2022-12-18T05:01:55;37.22;;;21.10;;
57443;SDS011;43289;52.962;6.196;2022-12-18T05:04:21;45.50;;;22.88;;
57443;SDS011;43289;52.962;6.196;2022-12-18T05:06:47;43.03;;;22.58;;
57443;SDS011;43289;52.962;6.196;2022-12-18T05:09:13;43.42;;;21.75;;
57443;SDS011;43289;52.962;6.196;2022-12-18T05:11:39;50.78;;;23.60;;
57443;SDS011;43289;52.962;6.196;2022-12-18T05:14:05;45.35;;;21.83;;
57443;SDS011;43289;52.962;6.196;2022-12-18T05:16:30;42.60;;;21.00;;
57443;SDS011;43289;52.962;6.196;2022-12-18T05:18:56;43.33;;;20.05;;
57443;SDS011;43289;52.962;6.196;2022-12-18T05:21:22;48.08;;;21.30;;
57443;SDS011;43289;52.962;6.196;2022-12-18T05:23:48;44.63;;;22.02;;
57443;SDS011;43289;52.962;6.196;2022-12-18T05:26:16;49.80;;;20.83;;
57443;SDS011;43289;52.962;6.196;2022-12-18T05:28:42;47.65;;;21.63;;
57443;SDS011;43289;52.962;6.196;2022-12-18T05:31:09;44.45;;;20.85;;
57443;SDS011;43289;52.962;6.196;2022-12-18T05:33:35;50.58;;;24.25;;
57443;SDS011;43289;52.962;6.196;2022-12-18T05:36:02;43.00;;;21.80;;
57443;SDS011;43289;52.962;6.196;2022-12-18T05:38:29;42.33;;;22.15;;
57443;SDS011;43289;52.962;6.196;2022-12-18T05:40:56;42.13;;;21.10;;
57443;SDS011;43289;52.962;6.196;2022-12-18T05:43:22;40.10;;;21.42;;
57443;SDS011;43289;52.962;6.196;2022-12-18T05:45:49;45.60;;;23.25;;
57443;SDS011;43289;52.962;6.196;2022-12-18T05:48:15;43.47;;;20.98;;
57443;SDS011;43289;52.962;6.196;2022-12-18T05:50:41;35.10;;;19.30;;
57443;SDS011;43289;52.962;6.196;2022-12-18T05:53:08;42.75;;;20.65;;
57443;SDS011;43289;52.962;6.196;2022-12-18T05:55:36;39.72;;;20.13;;
57443;SDS011;43289;52.962;6.196;2022-12-18T05:58:03;35.47;;;18.73;;
57443;SDS011;43289;52.962;6.196;2022-12-18T06:00:29;38.85;;;18.73;;
57443;SDS011;43289;52.962;6.196;2022-12-18T06:02:57;41.05;;;19.60;;
57443;SDS011;43289;52.962;6.196;2022-12-18T06:05:23;37.45;;;19.00;;
57443;SDS011;43289;52.962;6.196;2022-12-18T06:07:49;43.80;;;21.25;;
57443;SDS011;43289;52.962;6.196;2022-12-18T06:10:14;38.78;;;19.30;;
57443;SDS011;43289;52.962;6.196;2022-12-18T06:12:40;42.40;;;19.52;;
57443;SDS011;43289;52.962;6.196;2022-12-18T06:15:06;40.40;;;19.77;;
57443;SDS011;43289;52.962;6.196;2022-12-18T06:17:33;40.40;;;18.75;;
57443;SDS011;43289;52.962;6.196;2022-12-18T06:19:59;44.53;;;19.73;;
57443;SDS011;43289;52.962;6.196;2022-12-18T06:22:26;45.38;;;20.35;;
57443;SDS011;43289;52.962;6.196;2022-12-18T06:24:52;41.67;;;19.27;;
57443;SDS011;43289;52.962;6.196;2022-12-18T06:27:18;33.97;;;19.38;;
57443;SDS011;43289;52.962;6.196;2022-12-18T06:29:44;39.78;;;18.73;;
57443;SDS011;43289;52.962;6.196;2022-12-18T06:32:10;36.50;;;19.80;;
57443;SDS011;43289;52.962;6.196;2022-12-18T06:34:36;39.90;;;19.60;;
57443;SDS011;43289;52.962;6.196;2022-12-18T06:37:03;41.78;;;18.98;;
57443;SDS011;43289;52.962;6.196;2022-12-18T06:39:29;39.45;;;18.77;;
57443;SDS011;43289;52.962;6.196;2022-12-18T06:41:55;42.38;;;19.25;;
57443;SDS011;43289;52.962;6.196;2022-12-18T06:44:21;33.13;;;17.45;;
57443;SDS011;43289;52.962;6.196;2022-12-18T06:46:47;37.30;;;18.70;;
57443;SDS011;43289;52.962;6.196;2022-12-18T06:49:13;35.05;;;17.25;;
57443;SDS011;43289;52.962;6.196;2022-12-18T06:51:41;43.22;;;19.05;;
57443;SDS011;43289;52.962;6.196;2022-12-18T06:54:07;36.88;;;17.83;;
57443;SDS011;43289;52.962;6.196;2022-12-18T06:56:33;38.22;;;19.85;;
57443;SDS011;43289;52.962;6.196;2022-12-18T06:58:59;37.95;;;18.58;;
57443;SDS011;43289;52.962;6.196;2022-12-18T07:01:25;38.42;;;19.63;;
57443;SDS011;43289;52.962;6.196;2022-12-18T07:03:51;37.58;;;16.90;;
57443;SDS011;43289;52.962;6.196;2022-12-18T07:06:19;38.15;;;18.25;;
57443;SDS011;43289;52.962;6.196;2022-12-18T07:08:45;40.28;;;17.63;;
57443;SDS011;43289;52.962;6.196;2022-12-18T07:11:12;35.90;;;18.40;;
57443;SDS011;43289;52.962;6.196;2022-12-18T07:13:38;42.13;;;16.70;;
57443;SDS011;43289;52.962;6.196;2022-12-18T07:16:11;36.75;;;18.20;;
57443;SDS011;43289;52.962;6.196;2022-12-18T07:18:37;38.00;;;18.15;;
57443;SDS011;43289;52.962;6.196;2022-12-18T07:21:04;33.05;;;18.05;;
57443;SDS011;43289;52.962;6.196;2022-12-18T07:23:31;36.60;;;17.98;;
57443;SDS011;43289;52.962;6.196;2022-12-18T07:26:08;37.55;;;18.75;;
57443;SDS011;43289;52.962;6.196;2022-12-18T07:28:34;35.97;;;17.23;;
57443;SDS011;43289;52.962;6.196;2022-12-18T07:33:57;38.30;;;17.40;;
57443;SDS011;43289;52.962;6.196;2022-12-18T07:36:26;33.83;;;16.40;;
57443;SDS011;43289;52.962;6.196;2022-12-18T07:38:52;34.33;;;15.70;;
57443;SDS011;43289;52.962;6.196;2022-12-18T07:41:19;28.23;;;15.82;;
57443;SDS011;43289;52.962;6.196;2022-12-18T07:43:45;32.35;;;18.08;;
57443;SDS011;43289;52.962;6.196;2022-12-18T07:46:11;31.23;;;15.68;;
57443;SDS011;43289;52.962;6.196;2022-12-18T07:48:39;28.85;;;17.10;;
57443;SDS011;43289;52.962;6.196;2022-12-18T07:51:05;27.80;;;16.23;;
57443;SDS011;43289;52.962;6.196;2022-12-18T07:53:32;26.90;;;15.68;;
57443;SDS011;43289;52.962;6.196;2022-12-18T07:55:58;31.38;;;14.77;;
57443;SDS011;43289;52.962;6.196;2022-12-18T07:58:25;28.40;;;15.50;;
57443;SDS011;43289;52.962;6.196;2022-12-18T08:00:51;29.75;;;16.00;;
57443;SDS011;43289;52.962;6.196;2022-12-18T08:03:17;31.98;;;15.38;;
57443;SDS011;43289;52.962;6.196;2022-12-18T08:05:43;26.10;;;15.90;;
57443;SDS011;43289;52.962;6.196;2022-12-18T08:08:09;29.58;;;15.48;;
57443;SDS011;43289;52.962;6.196;2022-12-18T08:10:47;33.60;;;16.10;;
57443;SDS011;43289;52.962;6.196;2022-12-18T08:13:13;25.63;;;15.20;;
57443;SDS011;43289;52.962;6.196;2022-12-18T08:15:39;29.65;;;15.60;;
57443;SDS011;43289;52.962;6.196;2022-12-18T08:18:05;33.17;;;16.05;;
57443;SDS011;43289;52.962;6.196;2022-12-18T08:20:31;28.30;;;15.75;;
57443;SDS011;43289;52.962;6.196;2022-12-18T08:22:57;25.20;;;14.60;;
57443;SDS011;43289;52.962;6.196;2022-12-18T08:25:23;29.13;;;15.35;;
57443;SDS011;43289;52.962;6.196;2022-12-18T08:27:49;26.50;;;16.35;;
57443;SDS011;43289;52.962;6.196;2022-12-18T08:30:15;29.05;;;15.82;;
57443;SDS011;43289;52.962;6.196;2022-12-18T08:32:41;28.88;;;15.70;;
57443;SDS011;43289;52.962;6.196;2022-12-18T08:35:07;27.45;;;16.63;;
57443;SDS011;43289;52.962;6.196;2022-12-18T08:37:33;32.80;;;17.58;;
57443;SDS011;43289;52.962;6.196;2022-12-18T08:39:59;27.05;;;15.13;;
57443;SDS011;43289;52.962;6.196;2022-12-18T08:42:25;27.30;;;16.00;;
57443;SDS011;43289;52.962;6.196;2022-12-18T08:45:10;26.38;;;14.05;;
57443;SDS011;43289;52.962;6.196;2022-12-18T08:47:36;33.10;;;15.13;;
57443;SDS011;43289;52.962;6.196;2022-12-18T08:50:02;30.02;;;14.90;;
57443;SDS011;43289;52.962;6.196;2022-12-18T08:52:28;26.25;;;15.90;;
57443;SDS011;43289;52.962;6.196;2022-12-18T08:54:56;28.00;;;14.35;;
57443;SDS011;43289;52.962;6.196;2022-12-18T08:57:22;28.35;;;15.48;;
57443;SDS011;43289;52.962;6.196;2022-12-18T08:59:48;26.20;;;14.32;;
57443;SDS011;43289;52.962;6.196;2022-12-18T09:02:14;39.22;;;16.73;;
57443;SDS011;43289;52.962;6.196;2022-12-18T09:04:40;24.60;;;14.05;;
57443;SDS011;43289;52.962;6.196;2022-12-18T09:07:06;26.42;;;14.68;;
57443;SDS011;43289;52.962;6.196;2022-12-18T09:09:32;23.40;;;14.77;;
57443;SDS011;43289;52.962;6.196;2022-12-18T09:11:58;26.48;;;14.50;;
57443;SDS011;43289;52.962;6.196;2022-12-18T09:14:24;22.92;;;13.02;;
57443;SDS011;43289;52.962;6.196;2022-12-18T09:16:50;26.33;;;15.55;;
57443;SDS011;43289;52.962;6.196;2022-12-18T09:19:16;21.63;;;14.00;;
57443;SDS011;43289;52.962;6.196;2022-12-18T09:21:42;25.00;;;13.38;;
57443;SDS011;43289;52.962;6.196;2022-12-18T09:24:10;23.10;;;12.07;;
57443;SDS011;43289;52.962;6.196;2022-12-18T09:26:37;21.35;;;13.57;;
57443;SDS011;43289;52.962;6.196;2022-12-18T09:29:03;22.92;;;14.82;;
57443;SDS011;43289;52.962;6.196;2022-12-18T09:31:29;18.17;;;11.65;;
57443;SDS011;43289;52.962;6.196;2022-12-18T09:33:55;22.25;;;13.00;;
57443;SDS011;43289;52.962;6.196;2022-12-18T09:36:22;18.85;;;10.30;;
57443;SDS011;43289;52.962;6.196;2022-12-18T09:38:47;23.67;;;13.50;;
57443;SDS011;43289;52.962;6.196;2022-12-18T09:44:05;21.35;;;13.02;;
57443;SDS011;43289;52.962;6.196;2022-12-18T09:46:37;19.10;;;12.25;;
57443;SDS011;43289;52.962;6.196;2022-12-18T09:49:05;20.90;;;11.80;;
57443;SDS011;43289;52.962;6.196;2022-12-18T09:51:33;20.80;;;12.75;;
57443;SDS011;43289;52.962;6.196;2022-12-18T09:54:03;22.77;;;11.65;;
57443;SDS011;43289;52.962;6.196;2022-12-18T09:56:31;19.63;;;11.35;;
57443;SDS011;43289;52.962;6.196;2022-12-18T09:59:01;18.25;;;11.18;;
57443;SDS011;43289;52.962;6.196;2022-12-18T10:01:28;17.95;;;10.88;;
57443;SDS011;43289;52.962;6.196;2022-12-18T10:03:54;19.40;;;11.10;;
57443;SDS011;43289;52.962;6.196;2022-12-18T10:06:26;18.45;;;10.77;;
57443;SDS011;43289;52.962;6.196;2022-12-18T10:09:01;19.55;;;12.23;;
57443;SDS011;43289;52.962;6.196;2022-12-18T10:14:08;18.13;;;11.00;;
57443;SDS011;43289;52.962;6.196;2022-12-18T10:16:47;18.83;;;11.10;;
57443;SDS011;43289;52.962;6.196;2022-12-18T10:19:29;18.23;;;11.48;;
57443;SDS011;43289;52.962;6.196;2022-12-18T10:22:02;16.77;;;10.52;;
57443;SDS011;43289;52.962;6.196;2022-12-18T10:27:26;18.95;;;11.35;;
57443;SDS011;43289;52.962;6.196;2022-12-18T10:29:53;16.67;;;10.63;;
57443;SDS011;43289;52.962;6.196;2022-12-18T10:32:26;18.17;;;11.50;;
57443;SDS011;43289;52.962;6.196;2022-12-18T10:34:53;18.00;;;10.90;;
57443;SDS011;43289;52.962;6.196;2022-12-18T10:37:21;17.98;;;10.35;;
57443;SDS011;43289;52.962;6.196;2022-12-18T10:42:32;17.65;;;11.57;;
57443;SDS011;43289;52.962;6.196;2022-12-18T10:45:03;15.68;;;10.30;;
57443;SDS011;43289;52.962;6.196;2022-12-18T10:47:29;18.75;;;10.20;;
57443;SDS011;43289;52.962;6.196;2022-12-18T10:49:55;19.75;;;11.68;;
57443;SDS011;43289;52.962;6.196;2022-12-18T10:52:22;17.58;;;9.95;;
57443;SDS011;43289;52.962;6.196;2022-12-18T10:54:49;15.63;;;9.90;;
57443;SDS011;43289;52.962;6.196;2022-12-18T10:57:17;16.98;;;10.05;;
57443;SDS011;43289;52.962;6.196;2022-12-18T10:59:50;16.67;;;9.38;;
57443;SDS011;43289;52.962;6.196;2022-12-18T11:02:28;19.73;;;10.65;;
57443;SDS011;43289;52.962;6.196;2022-12-18T11:04:59;15.00;;;10.40;;
57443;SDS011;43289;52.962;6.196;2022-12-18T11:07:25;16.63;;;9.48;;
57443;SDS011;43289;52.962;6.196;2022-12-18T11:10:03;15.43;;;8.93;;
57443;SDS011;43289;52.962;6.196;2022-12-18T11:12:29;15.93;;;9.45;;
57443;SDS011;43289;52.962;6.196;2022-12-18T11:14:55;14.48;;;9.07;;
57443;SDS011;43289;52.962;6.196;2022-12-18T11:17:25;13.70;;;7.95;;
57443;SDS011;43289;52.962;6.196;2022-12-18T11:19:59;12.88;;;8.32;;
57443;SDS011;43289;52.962;6.196;2022-12-18T11:22:32;13.45;;;8.07;;
57443;SDS011;43289;52.962;6.196;2022-12-18T11:25:04;14.35;;;7.60;;
57443;SDS011;43289;52.962;6.196;2022-12-18T11:27:31;12.25;;;7.25;;
57443;SDS011;43289;52.962;6.196;2022-12-18T11:30:08;13.98;;;8.10;;
57443;SDS011;43289;52.962;6.196;2022-12-18T11:32:35;13.27;;;7.15;;
57443;SDS011;43289;52.962;6.196;2022-12-18T11:35:04;13.45;;;7.85;;
57443;SDS011;43289;52.962;6.196;2022-12-18T11:37:34;13.55;;;7.90;;
57443;SDS011;43289;52.962;6.196;2022-12-18T11:40:14;14.30;;;8.45;;
57443;SDS011;43289;52.962;6.196;2022-12-18T11:42:50;13.88;;;7.78;;
57443;SDS011;43289;52.962;6.196;2022-12-18T11:45:25;11.50;;;7.43;;
57443;SDS011;43289;52.962;6.196;2022-12-18T11:47:55;13.38;;;7.65;;
57443;SDS011;43289;52.962;6.196;2022-12-18T11:50:24;12.32;;;8.23;;
57443;SDS011;43289;52.962;6.196;2022-12-18T11:52:50;12.30;;;7.70;;
57443;SDS011;43289;52.962;6.196;2022-12-18T11:55:24;14.00;;;8.02;;
57443;SDS011;43289;52.962;6.196;2022-12-18T11:58:03;12.77;;;7.45;;
57443;SDS011;43289;52.962;6.196;2022-12-18T12:00:34;12.48;;;7.22;;
57443;SDS011;43289;52.962;6.196;2022-12-18T12:07:56;13.75;;;8.05;;
57443;SDS011;43289;52.962;6.196;2022-12-18T12:10:34;13.13;;;6.95;;
57443;SDS011;43289;52.962;6.196;2022-12-18T12:15:55;10.80;;;5.80;;
57443;SDS011;43289;52.962;6.196;2022-12-18T12:21:06;11.00;;;6.47;;
57443;SDS011;43289;52.962;6.196;2022-12-18T12:26:07;13.45;;;6.40;;
57443;SDS011;43289;52.962;6.196;2022-12-18T12:39:06;11.07;;;5.40;;
57443;SDS011;43289;52.962;6.196;2022-12-18T12:41:32;7.53;;;5.10;;
57443;SDS011;43289;52.962;6.196;2022-12-18T12:44:22;8.98;;;5.40;;
57443;SDS011;43289;52.962;6.196;2022-12-18T12:46:49;11.95;;;6.20;;
57443;SDS011;43289;52.962;6.196;2022-12-18T12:49:18;8.57;;;5.63;;
57443;SDS011;43289;52.962;6.196;2022-12-18T12:51:45;7.97;;;5.15;;
57443;SDS011;43289;52.962;6.196;2022-12-18T12:54:17;9.00;;;5.22;;
57443;SDS011;43289;52.962;6.196;2022-12-18T12:56:47;9.10;;;5.35;;
57443;SDS011;43289;52.962;6.196;2022-12-18T12:59:19;7.97;;;4.28;;
57443;SDS011;43289;52.962;6.196;2022-12-18T13:07:24;7.65;;;4.88;;
57443;SDS011;43289;52.962;6.196;2022-12-18T13:10:34;10.52;;;5.38;;
57443;SDS011;43289;52.962;6.196;2022-12-18T13:12:53;8.98;;;4.43;;
57443;SDS011;43289;52.962;6.196;2022-12-18T13:15:24;9.90;;;5.55;;
57443;SDS011;43289;52.962;6.196;2022-12-18T13:18:02;8.95;;;4.88;;
57443;SDS011;43289;52.962;6.196;2022-12-18T13:20:35;7.63;;;4.70;;
57443;SDS011;43289;52.962;6.196;2022-12-18T13:25:47;7.95;;;4.18;;
57443;SDS011;43289;52.962;6.196;2022-12-18T13:28:14;9.35;;;4.93;;
57443;SDS011;43289;52.962;6.196;2022-12-18T13:30:41;8.38;;;4.82;;
57443;SDS011;43289;52.962;6.196;2022-12-18T13:33:34;11.82;;;4.43;;
57443;SDS011;43289;52.962;6.196;2022-12-18T13:36:16;6.93;;;4.30;;
57443;SDS011;43289;52.962;6.196;2022-12-18T13:43:45;8.88;;;4.97;;
57443;SDS011;43289;52.962;6.196;2022-12-18T13:46:30;7.47;;;4.15;;
57443;SDS011;43289;52.962;6.196;2022-12-18T13:51:41;9.48;;;5.35;;
57443;SDS011;43289;52.962;6.196;2022-12-18T13:54:17;8.32;;;5.00;;
57443;SDS011;43289;52.962;6.196;2022-12-18T13:56:45;7.47;;;4.38;;
57443;SDS011;43289;52.962;6.196;2022-12-18T13:59:13;8.65;;;4.60;;
57443;SDS011;43289;52.962;6.196;2022-12-18T14:04:12;7.88;;;4.15;;
57443;SDS011;43289;52.962;6.196;2022-12-18T14:06:44;8.70;;;4.53;;
57443;SDS011;43289;52.962;6.196;2022-12-18T14:09:12;7.50;;;4.75;;
57443;SDS011;43289;52.962;6.196;2022-12-18T14:11:39;9.75;;;5.13;;
57443;SDS011;43289;52.962;6.196;2022-12-18T14:14:05;10.05;;;5.10;;
57443;SDS011;43289;52.962;6.196;2022-12-18T14:16:32;9.10;;;5.15;;
57443;SDS011;43289;52.962;6.196;2022-12-18T14:18:59;8.13;;;4.20;;
57443;SDS011;43289;52.962;6.196;2022-12-18T14:21:26;10.32;;;5.25;;
57443;SDS011;43289;52.962;6.196;2022-12-18T14:24:03;8.95;;;5.47;;
57443;SDS011;43289;52.962;6.196;2022-12-18T14:26:29;8.95;;;4.78;;
57443;SDS011;43289;52.962;6.196;2022-12-18T14:28:56;8.27;;;4.75;;
57443;SDS011;43289;52.962;6.196;2022-12-18T14:31:24;9.43;;;5.20;;
57443;SDS011;43289;52.962;6.196;2022-12-18T14:33:51;10.30;;;4.63;;
57443;SDS011;43289;52.962;6.196;2022-12-18T14:36:18;8.43;;;4.18;;
57443;SDS011;43289;52.962;6.196;2022-12-18T14:38:48;8.40;;;4.63;;
57443;SDS011;43289;52.962;6.196;2022-12-18T14:41:15;10.25;;;4.95;;
57443;SDS011;43289;52.962;6.196;2022-12-18T14:43:43;9.05;;;5.22;;
57443;SDS011;43289;52.962;6.196;2022-12-18T14:48:50;7.13;;;4.72;;
57443;SDS011;43289;52.962;6.196;2022-12-18T14:51:17;8.75;;;4.82;;
57443;SDS011;43289;52.962;6.196;2022-12-18T14:53:45;9.88;;;6.03;;
57443;SDS011;43289;52.962;6.196;2022-12-18T14:56:33;9.18;;;5.00;;
57443;SDS011;43289;52.962;6.196;2022-12-18T15:01:34;7.28;;;4.55;;
57443;SDS011;43289;52.962;6.196;2022-12-18T15:04:02;10.23;;;5.28;;
57443;SDS011;43289;52.962;6.196;2022-12-18T15:08:55;8.95;;;5.60;;
57443;SDS011;43289;52.962;6.196;2022-12-18T15:11:25;8.23;;;4.88;;
57443;SDS011;43289;52.962;6.196;2022-12-18T15:13:51;13.02;;;5.40;;
57443;SDS011;43289;52.962;6.196;2022-12-18T15:16:17;10.10;;;5.38;;
57443;SDS011;43289;52.962;6.196;2022-12-18T15:18:43;8.88;;;5.22;;
57443;SDS011;43289;52.962;6.196;2022-12-18T15:21:17;9.35;;;5.57;;
57443;SDS011;43289;52.962;6.196;2022-12-18T15:26:10;9.88;;;5.57;;
57443;SDS011;43289;52.962;6.196;2022-12-18T15:28:37;9.95;;;5.75;;
57443;SDS011;43289;52.962;6.196;2022-12-18T15:33:37;8.43;;;4.88;;
57443;SDS011;43289;52.962;6.196;2022-12-18T15:36:04;9.75;;;5.32;;
57443;SDS011;43289;52.962;6.196;2022-12-18T15:38:31;10.23;;;6.15;;
57443;SDS011;43289;52.962;6.196;2022-12-18T15:40:57;9.95;;;5.50;;
57443;SDS011;43289;52.962;6.196;2022-12-18T15:43:23;8.00;;;4.40;;
57443;SDS011;43289;52.962;6.196;2022-12-18T15:46:02;9.13;;;5.90;;
57443;SDS011;43289;52.962;6.196;2022-12-18T15:48:29;10.43;;;6.05;;
57443;SDS011;43289;52.962;6.196;2022-12-18T15:50:56;8.60;;;5.55;;
57443;SDS011;43289;52.962;6.196;2022-12-18T15:53:23;12.43;;;6.40;;
57443;SDS011;43289;52.962;6.196;2022-12-18T15:55:50;8.85;;;5.25;;
57443;SDS011;43289;52.962;6.196;2022-12-18T15:58:34;8.52;;;5.60;;
57443;SDS011;43289;52.962;6.196;2022-12-18T16:01:00;8.85;;;5.00;;
57443;SDS011;43289;52.962;6.196;2022-12-18T16:03:27;8.60;;;5.18;;